Time;durP1;ratioP1;P1;durP2;ratioP2;P2;SDS_P1;SDS_P2;PMS_P1;PMS_P2;Temp;Humidity;BMP_temperature;BMP_pressure;BME280_temperature;BME280_humidity;BME280_pressure;Samples;Min_cycle;Max_cycle;Signal;HPM_P1;HPM_P2
2020/12/25 00:01:19;;;;;;;1.30;0.90;;;;;;;1.42;90.89;98552.44;5036551;28;20321;-70
2020/12/25 00:03:44;;;;;;;1.52;0.82;;;;;;;1.36;91.42;98557.50;5039964;28;20025;-70
2020/12/25 00:06:09;;;;;;;1.45;0.88;;;;;;;1.40;91.17;98562.38;5053747;28;20079;-73
2020/12/25 00:08:34;;;;;;;1.27;0.88;;;;;;;1.44;91.43;98561.13;5053188;28;20036;-70
2020/12/25 00:11:00;;;;;;;1.02;0.73;;;;;;;1.40;91.49;98553.56;5054025;28;20032;-72
2020/12/25 00:13:25;;;;;;;1.08;0.70;;;;;;;1.49;91.02;98572.16;5041201;28;20082;-69
2020/12/25 00:15:50;;;;;;;1.30;0.80;;;;;;;1.45;91.34;98568.13;5037336;28;20040;-69
2020/12/25 00:18:15;;;;;;;1.08;0.73;;;;;;;1.47;91.36;98570.63;5047709;28;20106;-69
2020/12/25 00:20:41;;;;;;;1.15;0.57;;;;;;;1.45;91.72;98577.94;5047873;28;20043;-69
2020/12/25 00:23:06;;;;;;;0.90;0.80;;;;;;;1.37;91.22;98565.38;5048515;28;20079;-68
2020/12/25 00:25:31;;;;;;;2.05;0.80;;;;;;;1.23;91.29;98566.72;5035349;28;20124;-69
2020/12/25 00:27:56;;;;;;;1.10;0.80;;;;;;;1.25;91.51;98577.22;5028230;28;20034;-68
2020/12/25 00:30:22;;;;;;;1.80;0.82;;;;;;;1.25;91.48;98578.06;5054928;28;20375;-68
2020/12/25 00:32:47;;;;;;;1.08;0.70;;;;;;;1.17;91.29;98574.47;5065566;28;20600;-69
2020/12/25 00:35:12;;;;;;;0.77;0.60;;;;;;;1.12;91.76;98577.56;5039265;28;20021;-69
2020/12/25 00:37:37;;;;;;;1.27;0.60;;;;;;;1.08;91.44;98561.06;5054921;28;20185;-68
2020/12/25 00:40:04;;;;;;;0.90;0.63;;;;;;;1.17;91.88;98588.63;5025502;28;20086;-68
2020/12/25 00:42:29;;;;;;;1.02;0.70;;;;;;;1.05;91.43;98579.19;5036181;28;20048;-68
2020/12/25 00:44:55;;;;;;;0.65;0.55;;;;;;;1.12;91.56;98585.56;5052335;28;20479;-68
2020/12/25 00:47:20;;;;;;;0.40;0.40;;;;;;;1.20;91.53;98590.16;5054648;28;20053;-69
2020/12/25 00:49:45;;;;;;;0.80;0.55;;;;;;;1.15;91.65;98592.41;5054830;28;20025;-68
2020/12/25 00:52:10;;;;;;;0.57;0.40;;;;;;;1.20;91.48;98608.81;5054418;28;20108;-68
2020/12/25 00:54:36;;;;;;;0.45;0.38;;;;;;;1.16;91.59;98604.78;5036849;28;20021;-68
2020/12/25 00:57:01;;;;;;;0.30;0.30;;;;;;;1.05;91.25;98611.13;5054338;28;20100;-69
2020/12/25 00:59:26;;;;;;;0.30;0.30;;;;;;;1.04;90.75;98614.78;5054776;28;20103;-69
2020/12/25 01:01:52;;;;;;;0.40;0.22;;;;;;;0.97;91.26;98613.69;5054124;28;20498;-68
2020/12/25 01:04:19;;;;;;;0.40;0.30;;;;;;;0.92;91.21;98607.94;5052721;28;20032;-68
2020/12/25 01:06:44;;;;;;;0.20;0.20;;;;;;;0.79;90.71;98613.63;5056537;28;20033;-68
2020/12/25 01:09:10;;;;;;;0.20;0.20;;;;;;;0.69;91.17;98619.00;5055932;28;20029;-69
2020/12/25 01:11:35;;;;;;;0.20;0.20;;;;;;;0.58;91.72;98617.34;5035953;28;20116;-69
2020/12/25 01:14:00;;;;;;;0.10;0.10;;;;;;;0.59;91.61;98623.50;5060389;28;20039;-69
2020/12/25 01:16:25;;;;;;;0.30;0.25;;;;;;;0.60;91.51;98631.34;5068419;28;20090;-69
2020/12/25 01:18:51;;;;;;;0.20;0.20;;;;;;;0.63;91.99;98630.22;5037080;28;20027;-69
2020/12/25 01:21:16;;;;;;;0.30;0.20;;;;;;;0.63;92.04;98636.38;5042326;28;20038;-69
2020/12/25 01:23:42;;;;;;;1.55;0.30;;;;;;;0.65;91.86;98636.22;5067944;28;20029;-69
2020/12/25 01:26:08;;;;;;;1.02;0.30;;;;;;;0.67;91.77;98644.91;5064711;28;20013;-70
2020/12/25 01:28:35;;;;;;;0.85;0.40;;;;;;;0.64;92.01;98639.88;5042482;28;20166;-69
2020/12/25 01:31:02;;;;;;;0.20;0.20;;;;;;;0.80;91.35;98653.41;5035092;28;20025;-68
2020/12/25 01:33:37;;;;;;;0.20;0.20;;;;;;;0.67;91.12;98668.88;5054582;28;20029;-68
2020/12/25 01:36:04;;;;;;;0.25;0.20;;;;;;;0.64;91.34;98664.66;5052516;28;20091;-71
2020/12/25 01:38:29;;;;;;;0.30;0.25;;;;;;;0.61;91.12;98664.13;5053306;28;20425;-69
2020/12/25 01:40:54;;;;;;;0.45;0.20;;;;;;;0.52;91.66;98647.19;5052254;28;20038;-69
2020/12/25 01:43:20;;;;;;;0.30;0.28;;;;;;;0.46;91.20;98660.22;5054690;28;20114;-68
2020/12/25 01:45:45;;;;;;;0.60;0.20;;;;;;;0.42;91.13;98665.84;5065105;28;20067;-68
2020/12/25 01:48:11;;;;;;;0.43;0.30;;;;;;;0.51;91.45;98672.13;5054552;28;20032;-69
2020/12/25 01:50:37;;;;;;;0.50;0.50;;;;;;;0.39;91.25;98681.25;5053014;28;20071;-69
2020/12/25 01:53:04;;;;;;;1.50;0.50;;;;;;;0.32;91.35;98680.16;5042352;28;20033;-68
2020/12/25 01:55:32;;;;;;;1.50;0.90;;;;;;;0.29;91.79;98677.75;5055256;28;20087;-69
2020/12/25 01:57:59;;;;;;;6.90;3.08;;;;;;;0.34;91.92;98680.81;5051680;28;20546;-68
2020/12/25 02:00:25;;;;;;;6.28;3.20;;;;;;;0.32;91.65;98675.66;5052383;28;20048;-69
2020/12/25 02:02:51;;;;;;;6.90;3.20;;;;;;;0.50;91.50;98683.78;5052987;28;20060;-68
2020/12/25 02:05:16;;;;;;;2.30;1.40;;;;;;;0.56;90.63;98667.22;5054582;28;20024;-67
2020/12/25 02:07:43;;;;;;;2.78;1.98;;;;;;;0.49;90.75;98679.41;5053463;28;20494;-69
2020/12/25 02:10:10;;;;;;;2.38;1.33;;;;;;;0.31;90.99;98673.97;5051933;28;20483;-69
2020/12/25 02:12:37;;;;;;;1.15;0.90;;;;;;;0.55;90.96;98685.97;5049965;28;20028;-68
2020/12/25 02:15:04;;;;;;;1.35;0.90;;;;;;;0.44;91.22;98695.78;5050571;28;20036;-68
2020/12/25 02:17:29;;;;;;;0.88;0.68;;;;;;;0.33;90.92;98687.97;5050111;28;20082;-68
2020/12/25 02:19:55;;;;;;;1.58;1.08;;;;;;;0.40;91.28;98666.97;5032654;28;20430;-68
2020/12/25 02:22:20;;;;;;;1.55;0.90;;;;;;;0.39;90.96;98702.53;5050882;28;20020;-68
2020/12/25 02:24:45;;;;;;;1.35;0.80;;;;;;;0.28;91.42;98690.22;5051406;28;20436;-69
2020/12/25 02:27:10;;;;;;;1.38;0.90;;;;;;;0.33;91.39;98708.44;5061713;28;20096;-69
2020/12/25 02:29:36;;;;;;;1.30;0.90;;;;;;;0.37;91.48;98691.22;5062508;28;20135;-68
2020/12/25 02:32:01;;;;;;;1.13;1.00;;;;;;;0.40;91.59;98694.41;5052219;28;20028;-68
2020/12/25 02:34:26;;;;;;;1.13;0.85;;;;;;;0.54;91.28;98714.44;5051173;28;20041;-69
2020/12/25 02:36:51;;;;;;;1.00;0.70;;;;;;;0.59;91.13;98725.50;5051831;28;20509;-68
2020/12/25 02:39:17;;;;;;;0.98;0.80;;;;;;;0.58;91.17;98712.34;5068563;28;20126;-69
2020/12/25 02:41:42;;;;;;;1.63;1.20;;;;;;;0.55;90.98;98707.28;5062332;28;20056;-67
2020/12/25 02:44:07;;;;;;;1.42;1.15;;;;;;;0.44;91.15;98716.25;5075210;28;20080;-67
2020/12/25 02:46:32;;;;;;;1.40;1.13;;;;;;;0.26;91.72;98701.97;5076115;28;20072;-67
2020/12/25 02:48:58;;;;;;;1.98;1.50;;;;;;;0.33;92.03;98709.25;5077109;28;20035;-68
2020/12/25 02:51:23;;;;;;;2.05;1.60;;;;;;;0.25;92.12;98705.63;5077894;28;20069;-68
2020/12/25 02:53:48;;;;;;;2.30;1.70;;;;;;;0.32;92.08;98723.56;5077613;28;20016;-69
2020/12/25 02:56:18;;;;;;;2.70;2.00;;;;;;;0.50;92.09;98725.50;5079234;28;20005;-69
2020/12/25 02:58:44;;;;;;;3.80;2.30;;;;;;;0.46;91.96;98732.94;5081338;28;20033;-69
2020/12/25 03:01:16;;;;;;;3.83;2.58;;;;;;;0.46;92.47;98719.63;5059269;28;20013;-67
2020/12/25 03:03:42;;;;;;;5.13;2.47;;;;;;;0.46;92.25;98721.44;5068976;28;20022;-68
2020/12/25 03:06:08;;;;;;;3.30;2.53;;;;;;;0.64;91.67;98727.72;5058972;28;20027;-69
2020/12/25 03:08:35;;;;;;;3.70;2.60;;;;;;;0.65;91.52;98740.06;5062566;28;20052;-69
2020/12/25 03:11:00;;;;;;;3.78;2.50;;;;;;;0.70;91.58;98732.47;5038504;28;20025;-69
2020/12/25 03:13:25;;;;;;;3.15;2.10;;;;;;;0.69;91.37;98735.31;5057316;28;20090;-67
2020/12/25 03:15:51;;;;;;;2.88;1.88;;;;;;;0.70;92.11;98743.13;5039129;28;20096;-69
2020/12/25 03:18:16;;;;;;;2.90;1.63;;;;;;;0.75;91.99;98721.41;5054596;28;20033;-69
2020/12/25 03:20:41;;;;;;;1.65;1.27;;;;;;;0.77;91.42;98740.75;5055098;28;20033;-69
2020/12/25 03:23:07;;;;;;;2.28;1.40;;;;;;;0.68;91.67;98736.25;5065029;28;20033;-68
2020/12/25 03:25:32;;;;;;;1.75;1.23;;;;;;;0.71;92.06;98738.63;5075069;28;20033;-69
2020/12/25 03:27:57;;;;;;;2.20;1.20;;;;;;;0.72;92.07;98735.00;5075442;28;20025;-68
2020/12/25 03:30:23;;;;;;;2.38;1.50;;;;;;;0.75;91.83;98740.03;5077997;28;20036;-68
2020/12/25 03:32:49;;;;;;;2.45;1.85;;;;;;;0.68;92.52;98728.28;5079467;28;20059;-69
2020/12/25 03:35:15;;;;;;;3.90;2.53;;;;;;;0.72;92.45;98743.84;5088618;28;20029;-72
2020/12/25 03:37:40;;;;;;;3.33;2.17;;;;;;;0.79;92.09;98738.78;5070289;28;20037;-69
2020/12/25 03:40:06;;;;;;;4.65;2.67;;;;;;;0.84;92.02;98733.88;5072253;28;20029;-68
2020/12/25 03:42:31;;;;;;;7.53;3.70;;;;;;;0.91;92.54;98745.63;5071322;28;20033;-68
2020/12/25 03:44:56;;;;;;;6.07;3.50;;;;;;;0.94;92.52;98745.31;5074296;28;20029;-70
2020/12/25 03:47:24;;;;;;;6.78;3.78;;;;;;;1.12;91.99;98736.59;5086578;28;20032;-69
2020/12/25 03:49:49;;;;;;;5.75;3.83;;;;;;;1.14;91.73;98740.78;5068607;28;20034;-68
2020/12/25 03:52:14;;;;;;;7.13;3.92;;;;;;;1.08;92.05;98736.88;5056479;28;20077;-69
2020/12/25 03:54:39;;;;;;;8.15;4.90;;;;;;;1.26;92.69;98741.47;5073253;28;20048;-68
2020/12/25 03:57:04;;;;;;;9.93;5.53;;;;;;;1.40;92.79;98743.66;5074169;28;20028;-68
2020/12/25 03:59:31;;;;;;;8.23;5.07;;;;;;;1.46;92.55;98750.22;5080775;28;20092;-68
2020/12/25 04:01:56;;;;;;;12.52;5.75;;;;;;;1.57;92.59;98735.84;5075958;28;20016;-67
2020/12/25 04:04:22;;;;;;;10.18;6.07;;;;;;;1.63;92.64;98743.28;5085621;28;20013;-69
2020/12/25 04:06:47;;;;;;;10.55;6.18;;;;;;;1.72;92.21;98750.38;5087410;28;20032;-69
2020/12/25 04:09:12;;;;;;;10.55;5.90;;;;;;;1.84;92.26;98746.53;5077152;28;20021;-69
2020/12/25 04:11:37;;;;;;;10.90;6.28;;;;;;;1.82;92.09;98748.50;5078441;28;20084;-71
2020/12/25 04:14:03;;;;;;;10.60;6.07;;;;;;;1.85;92.12;98756.19;5062587;28;20017;-69
2020/12/25 04:16:29;;;;;;;8.85;5.55;;;;;;;1.86;92.10;98751.69;5066632;28;20033;-68
2020/12/25 04:18:55;;;;;;;9.93;5.28;;;;;;;1.92;91.71;98756.47;5071966;28;20025;-68
2020/12/25 04:21:20;;;;;;;11.75;5.97;;;;;;;1.93;92.09;98756.28;5067041;28;20437;-68
2020/12/25 04:23:45;;;;;;;9.02;5.20;;;;;;;1.89;92.17;98752.25;5061542;28;20028;-69
2020/12/25 04:26:10;;;;;;;11.63;5.97;;;;;;;1.94;91.39;98760.66;5061922;28;20043;-69
2020/12/25 04:28:36;;;;;;;11.25;5.75;;;;;;;1.82;91.75;98737.00;5066780;28;20052;-69
2020/12/25 04:31:01;;;;;;;10.65;6.18;;;;;;;1.83;91.72;98741.34;5087826;28;20029;-68
2020/12/25 04:33:26;;;;;;;10.40;5.35;;;;;;;1.96;91.73;98777.38;5074439;28;20378;-67
2020/12/25 04:35:52;;;;;;;8.95;5.63;;;;;;;1.96;91.66;98774.69;5097029;28;20037;-68
2020/12/25 04:38:17;;;;;;;10.68;5.85;;;;;;;1.94;91.53;98782.00;5096188;28;20030;-68
2020/12/25 04:40:43;;;;;;;8.95;5.63;;;;;;;1.90;91.78;98779.78;5082325;28;20048;-67
2020/12/25 04:43:09;;;;;;;13.77;5.93;;;;;;;1.96;92.09;98790.69;5047599;28;20029;-69
2020/12/25 04:45:35;;;;;;;12.10;5.85;;;;;;;1.96;92.07;98790.69;5052048;28;20057;-69
2020/12/25 04:48:00;;;;;;;11.45;5.95;;;;;;;1.98;91.57;98794.03;5052436;28;20067;-69
2020/12/25 04:50:26;;;;;;;9.02;5.07;;;;;;;1.94;91.99;98791.84;5051013;28;20088;-69
2020/12/25 04:52:51;;;;;;;9.30;5.28;;;;;;;2.01;92.28;98800.06;5051419;28;20139;-69
2020/12/25 04:55:16;;;;;;;10.10;5.47;;;;;;;1.97;92.00;98796.88;5032922;28;20028;-68
2020/12/25 04:57:42;;;;;;;9.93;5.75;;;;;;;1.93;92.17;98788.31;5057627;28;20529;-69
2020/12/25 05:00:18;;;;;;;9.43;5.63;;;;;;;1.91;92.01;98787.63;5045413;28;20479;-68
2020/12/25 05:02:46;;;;;;;10.52;5.50;;;;;;;2.00;92.06;98812.59;5061217;28;20031;-69
2020/12/25 05:05:14;;;;;;;8.27;5.13;;;;;;;1.98;91.67;98799.38;5035792;28;20033;-69
2020/12/25 05:07:40;;;;;;;9.95;5.32;;;;;;;2.00;91.67;98795.75;5051166;28;20328;-68
2020/12/25 05:10:07;;;;;;;10.32;5.47;;;;;;;2.05;92.22;98817.47;5059182;28;20032;-69
2020/12/25 05:12:33;;;;;;;9.25;5.35;;;;;;;2.03;91.98;98803.44;5042125;28;20475;-69
2020/12/25 05:14:58;;;;;;;8.23;4.43;;;;;;;2.01;91.75;98802.75;5050097;28;20021;-68
2020/12/25 05:17:24;;;;;;;9.60;5.28;;;;;;;2.10;91.66;98828.53;5051296;28;20073;-68
2020/12/25 05:19:49;;;;;;;10.18;5.50;;;;;;;2.08;91.80;98814.50;5050943;28;20414;-69
2020/12/25 05:22:18;;;;;;;10.43;5.53;;;;;;;2.02;91.77;98799.06;5050751;28;20033;-69
2020/12/25 05:24:43;;;;;;;8.77;5.03;;;;;;;2.04;91.57;98823.78;5049253;28;20040;-69
2020/12/25 05:27:13;;;;;;;12.00;6.03;;;;;;;2.08;92.03;98814.50;5050487;28;20025;-69
2020/12/25 05:29:39;;;;;;;10.98;5.63;;;;;;;2.11;91.89;98831.06;5035467;28;20390;-68
2020/12/25 05:32:06;;;;;;;11.68;5.45;;;;;;;2.16;91.63;98839.44;5060782;28;20044;-69
2020/12/25 05:34:33;;;;;;;9.35;5.75;;;;;;;2.16;91.76;98830.59;5046772;28;20033;-68
2020/12/25 05:37:01;;;;;;;10.23;5.50;;;;;;;2.18;91.56;98836.66;5061306;28;20064;-69
2020/12/25 05:39:31;;;;;;;8.65;4.95;;;;;;;2.26;91.38;98850.09;5054373;28;20029;-68
2020/12/25 05:41:58;;;;;;;8.15;4.90;;;;;;;2.16;91.96;98849.28;5052047;28;20047;-69
2020/12/25 05:44:26;;;;;;;10.15;5.57;;;;;;;2.17;92.00;98840.28;5034284;28;20044;-69
2020/12/25 05:46:51;;;;;;;10.13;5.00;;;;;;;2.23;91.83;98854.84;5070102;28;20032;-69
2020/12/25 05:49:17;;;;;;;8.95;4.60;;;;;;;2.09;91.76;98840.19;5037173;28;20115;-69
2020/12/25 05:51:47;;;;;;;8.80;4.80;;;;;;;2.22;91.50;98863.88;5056868;28;20049;-69
2020/12/25 05:54:19;;;;;;;8.32;4.57;;;;;;;2.26;91.38;98855.41;5048814;28;20017;-69
2020/12/25 05:56:49;;;;;;;8.43;4.72;;;;;;;2.21;91.37;98851.53;5033238;28;20029;-68
2020/12/25 05:59:15;;;;;;;7.80;4.57;;;;;;;2.22;90.82;98858.53;5049916;28;20029;-69
2020/12/25 06:01:43;;;;;;;10.25;5.47;;;;;;;2.24;91.57;98867.25;5050389;28;20036;-69
2020/12/25 06:04:09;;;;;;;8.57;5.13;;;;;;;2.16;91.43;98858.13;5050064;28;20094;-68
2020/12/25 06:06:34;;;;;;;11.07;5.53;;;;;;;2.22;91.41;98866.53;5050532;28;20465;-69
2020/12/25 06:09:05;;;;;;;9.85;4.88;;;;;;;2.20;91.53;98864.00;5033229;28;20485;-69
2020/12/25 06:11:31;;;;;;;14.75;4.70;;;;;;;2.26;91.58;98870.59;5061576;28;20083;-68
2020/12/25 06:13:58;;;;;;;9.45;5.43;;;;;;;2.24;91.65;98868.06;5063970;28;20040;-68
2020/12/25 06:16:24;;;;;;;8.90;4.82;;;;;;;2.22;91.15;98871.88;5053733;28;20422;-69
2020/12/25 06:19:08;;;;;;;7.70;4.43;;;;;;;2.21;91.28;98884.38;5067897;28;20032;-69
2020/12/25 06:21:48;;;;;;;9.68;5.22;;;;;;;2.24;91.73;98891.25;5014196;28;20026;-69
2020/12/25 06:24:14;;;;;;;;;;;;;;;2.17;91.37;98891.00;5046416;28;20040;-69
2020/12/25 06:26:40;;;;;;;8.30;4.03;;;;;;;2.14;91.49;98878.78;5049634;28;19931;-69
2020/12/25 06:29:06;;;;;;;9.07;4.50;;;;;;;2.19;91.44;98887.19;5058123;28;20021;-69
2020/12/25 06:31:42;;;;;;;7.97;4.72;;;;;;;2.18;91.50;98884.69;5051409;28;20041;-68
2020/12/25 06:34:08;;;;;;;9.23;4.43;;;;;;;2.19;91.60;98899.69;5056442;28;20025;-69
2020/12/25 06:36:33;;;;;;;7.80;4.90;;;;;;;2.16;91.47;98902.66;5025772;28;20931;-70
2020/12/25 06:39:02;;;;;;;7.57;4.70;;;;;;;2.14;92.15;98899.31;5047725;28;20481;-69
2020/12/25 06:41:28;;;;;;;10.55;5.30;;;;;;;2.15;91.53;98898.34;5049569;28;20486;-69
2020/12/25 06:43:55;;;;;;;9.80;4.95;;;;;;;2.17;91.59;98909.69;5055157;28;20041;-70
2020/12/25 06:46:28;;;;;;;9.75;4.90;;;;;;;2.16;91.83;98913.34;5047169;28;20036;-70
2020/12/25 06:48:58;;;;;;;8.98;4.88;;;;;;;2.10;91.44;98903.28;5047813;28;20028;-70
2020/12/25 06:51:26;;;;;;;8.73;4.63;;;;;;;2.17;91.82;98912.34;5045134;28;20032;-70
2020/12/25 06:53:55;;;;;;;8.57;5.00;;;;;;;2.10;92.18;98913.94;5040251;28;20029;-69
2020/12/25 06:56:20;;;;;;;9.70;4.97;;;;;;;2.09;91.70;98912.25;5039266;28;20029;-70
2020/12/25 06:58:54;;;;;;;9.18;4.68;;;;;;;2.14;91.94;98924.16;5047770;28;20282;-70
2020/12/25 07:01:36;;;;;;;8.98;4.60;;;;;;;2.16;91.96;98929.38;5049866;28;20100;-70
2020/12/25 07:04:03;;;;;;;9.57;4.72;;;;;;;2.07;92.30;98914.22;5043073;28;20036;-70
2020/12/25 07:06:31;;;;;;;7.72;4.68;;;;;;;2.24;91.46;98924.13;5049752;28;20036;-70
2020/12/25 07:09:08;;;;;;;6.97;4.10;;;;;;;2.18;91.24;98924.72;5050667;28;20096;-70
2020/12/25 07:11:33;;;;;;;7.97;4.82;;;;;;;2.28;91.08;98940.69;5050315;28;20029;-69
2020/12/25 07:13:59;;;;;;;8.75;4.78;;;;;;;2.25;91.48;98944.47;5049868;28;20548;-70
2020/12/25 07:16:24;;;;;;;8.82;4.90;;;;;;;2.23;91.28;98927.78;5033545;28;20163;-71
2020/12/25 07:18:50;;;;;;;12.25;5.68;;;;;;;2.33;90.93;98949.09;5048464;28;20043;-72
2020/12/25 07:21:15;;;;;;;10.48;5.68;;;;;;;2.24;91.14;98950.81;5049982;28;20056;-72
2020/12/25 07:23:42;;;;;;;9.90;4.88;;;;;;;2.34;91.65;98948.94;5040773;28;20649;-73
2020/12/25 07:26:08;;;;;;;10.65;5.80;;;;;;;2.19;91.63;98948.59;5042370;28;20040;-70
2020/12/25 07:28:33;;;;;;;9.60;5.47;;;;;;;2.14;91.33;98947.34;5031708;28;20028;-71
2020/12/25 07:30:59;;;;;;;9.07;5.18;;;;;;;2.23;91.26;98958.97;5035157;28;20040;-71
2020/12/25 07:33:24;;;;;;;11.50;5.40;;;;;;;2.28;91.35;98957.56;5053192;28;20036;-70
2020/12/25 07:35:51;;;;;;;10.75;5.20;;;;;;;2.24;91.52;98974.84;5054559;28;20037;-71
2020/12/25 07:38:16;;;;;;;8.75;5.35;;;;;;;2.26;90.75;98967.53;5038169;28;20035;-69
2020/12/25 07:40:43;;;;;;;9.77;5.18;;;;;;;2.28;90.59;98976.25;5046471;28;20029;-69
2020/12/25 07:43:13;;;;;;;8.55;4.75;;;;;;;2.27;90.91;98979.06;5054877;28;20115;-70
2020/12/25 07:45:38;;;;;;;;;;;;;;;2.23;90.49;98983.84;5046326;28;20029;-70
2020/12/25 07:48:05;;;;;;;8.25;4.43;;;;;;;2.16;91.07;98969.41;5048612;28;19919;-68
2020/12/25 07:50:37;;;;;;;10.43;4.65;;;;;;;2.19;91.32;98993.13;5048948;28;20780;-70
2020/12/25 07:53:07;;;;;;;9.45;4.68;;;;;;;2.15;91.09;98994.41;5054571;28;20029;-69
2020/12/25 07:55:32;;;;;;;9.65;5.15;;;;;;;2.08;91.37;98970.13;5038880;28;20394;-72
2020/12/25 07:58:00;;;;;;;12.38;5.45;;;;;;;2.22;91.23;98997.34;5034957;28;20086;-70
2020/12/25 08:00:26;;;;;;;10.45;5.15;;;;;;;2.16;90.95;99004.09;5045686;28;20501;-69
2020/12/25 08:02:53;;;;;;;9.60;5.18;;;;;;;2.14;91.26;99006.91;5053857;28;20037;-70
2020/12/25 08:05:19;;;;;;;8.85;5.22;;;;;;;2.19;91.56;99009.97;5037181;28;20025;-71
2020/12/25 08:07:45;;;;;;;12.80;5.47;;;;;;;2.19;91.43;99001.13;5053680;28;20059;-71
2020/12/25 08:10:13;;;;;;;9.82;5.57;;;;;;;2.34;91.43;99009.53;5053349;28;20021;-69
2020/12/25 08:12:59;;;;;;;12.50;5.78;;;;;;;2.49;91.08;99010.75;5053556;28;20033;-68
2020/12/25 08:15:25;;;;;;;11.18;6.00;;;;;;;2.35;90.59;99001.34;5058382;28;20045;-70
2020/12/25 08:17:53;;;;;;;10.27;5.38;;;;;;;2.48;90.88;99005.53;5059383;28;20029;-73
2020/12/25 08:20:20;;;;;;;9.05;5.07;;;;;;;2.50;90.75;99008.91;5052873;28;20036;-71
2020/12/25 08:22:45;;;;;;;11.93;5.35;;;;;;;2.60;90.84;99007.03;5067490;28;20029;-71
2020/12/25 08:25:11;;;;;;;10.65;5.47;;;;;;;2.55;90.38;98994.13;5061885;28;20037;-73
2020/12/25 08:27:36;;;;;;;11.65;5.22;;;;;;;2.76;90.09;99017.91;5061990;28;20029;-73
2020/12/25 08:30:06;;;;;;;7.70;4.20;;;;;;;2.81;89.33;99014.81;5060102;28;20040;-72
2020/12/25 08:32:33;;;;;;;13.68;4.97;;;;;;;2.78;89.68;99015.09;5065067;28;20032;-74
2020/12/25 08:35:07;;;;;;;10.38;4.97;;;;;;;2.83;89.94;99029.69;5057921;28;20029;-70
2020/12/25 08:37:33;;;;;;;9.98;4.63;;;;;;;2.74;89.76;99030.56;5068510;28;20100;-73
2020/12/25 08:40:14;;;;;;;8.55;4.80;;;;;;;2.74;89.43;99030.56;5066063;28;20055;-72
2020/12/25 08:42:40;;;;;;;11.48;4.43;;;;;;;2.76;89.43;99019.75;5062413;28;20160;-71
2020/12/25 08:45:05;;;;;;;8.40;4.40;;;;;;;2.57;88.54;99010.84;5064480;28;20545;-73
2020/12/25 08:47:30;;;;;;;7.50;4.15;;;;;;;2.74;89.23;99043.94;5059088;28;20055;-74
2020/12/25 08:49:56;;;;;;;7.50;4.45;;;;;;;2.81;89.44;99046.88;5062889;28;20033;-70
2020/12/25 08:52:22;;;;;;;10.00;4.65;;;;;;;2.77;89.72;99048.97;5051035;28;20024;-72
2020/12/25 08:54:55;;;;;;;8.73;4.63;;;;;;;2.71;89.50;99040.72;5069086;28;20059;-71
2020/12/25 08:57:20;;;;;;;8.00;4.65;;;;;;;2.71;88.71;99052.25;5034594;28;20025;-70
2020/12/25 08:59:45;;;;;;;8.00;4.28;;;;;;;2.79;89.45;99055.00;5050662;28;20032;-73
2020/12/25 09:02:11;;;;;;;9.07;4.43;;;;;;;2.77;89.26;99057.00;5063294;28;20021;-76
2020/12/25 09:04:36;;;;;;;9.68;4.47;;;;;;;2.82;89.40;99053.88;5050167;28;20035;-78
2020/12/25 09:07:01;;;;;;;7.18;4.40;;;;;;;2.83;88.73;99056.41;5050060;28;20032;-72
2020/12/25 09:09:27;;;;;;;7.95;4.55;;;;;;;2.68;88.78;99047.19;5068670;28;20032;-74
2020/12/25 09:11:52;;;;;;;9.82;4.07;;;;;;;2.84;89.04;99073.28;5066678;28;20047;-73
2020/12/25 09:14:18;;;;;;;8.88;4.07;;;;;;;2.92;89.03;99077.91;5067065;28;20061;-72
2020/12/25 09:16:43;;;;;;;8.02;4.10;;;;;;;3.12;88.61;99082.16;5066118;28;20483;-72
2020/12/25 09:19:08;;;;;;;7.32;4.25;;;;;;;3.21;88.79;99091.94;5059940;28;20017;-72
2020/12/25 09:21:35;;;;;;;7.53;4.00;;;;;;;3.27;88.06;99085.16;5062776;28;20034;-69
2020/12/25 09:24:00;;;;;;;7.07;4.35;;;;;;;3.31;88.13;99091.06;5065647;28;20034;-75
2020/12/25 09:26:25;;;;;;;7.15;3.97;;;;;;;3.28;87.80;99087.69;5043125;28;20041;-75
2020/12/25 09:28:51;;;;;;;7.30;4.00;;;;;;;3.27;87.65;99102.06;5063715;28;20083;-74
2020/12/25 09:31:16;;;;;;;6.57;3.50;;;;;;;3.27;87.44;99104.75;5066523;28;20027;-74
2020/12/25 09:33:41;;;;;;;6.68;3.78;;;;;;;3.32;87.29;99096.25;5060752;28;20355;-72
2020/12/25 09:36:08;;;;;;;5.55;3.47;;;;;;;3.28;87.07;99089.53;5055906;28;20029;-70
2020/12/25 09:38:34;;;;;;;7.72;4.68;;;;;;;3.35;87.18;99108.47;5039984;28;20040;-70
2020/12/25 09:41:03;;;;;;;7.43;3.90;;;;;;;3.27;86.92;99112.75;5064396;28;20047;-71
2020/12/25 09:43:29;;;;;;;6.30;3.40;;;;;;;3.31;87.35;99112.44;5060487;28;20368;-71
2020/12/25 09:45:55;;;;;;;8.05;3.50;;;;;;;3.25;87.28;99111.22;5065011;28;20029;-70
2020/12/25 09:48:20;;;;;;;7.18;4.38;;;;;;;3.10;87.61;99118.88;5061302;28;20039;-71
2020/12/25 09:50:45;;;;;;;9.52;4.32;;;;;;;3.20;87.01;99111.66;5066677;28;20025;-71
2020/12/25 09:53:11;;;;;;;6.15;3.45;;;;;;;3.20;87.50;99114.34;5051823;28;20088;-71
2020/12/25 09:55:38;;;;;;;6.22;3.58;;;;;;;3.23;87.05;99130.06;5060378;28;20028;-71
2020/12/25 09:58:04;;;;;;;8.80;4.03;;;;;;;3.37;87.37;99117.19;5059368;28;20101;-71
2020/12/25 10:00:30;;;;;;;10.25;4.07;;;;;;;3.36;86.63;99113.69;5055759;28;20053;-71
2020/12/25 10:02:57;;;;;;;7.15;4.10;;;;;;;3.50;86.26;99117.69;5040167;28;20044;-73
2020/12/25 10:05:23;;;;;;;7.18;3.97;;;;;;;3.53;86.06;99122.72;5057357;28;20037;-76
2020/12/25 10:07:52;;;;;;;9.50;3.97;;;;;;;3.49;86.74;99116.00;5042204;28;20088;-70
2020/12/25 10:10:18;;;;;;;8.52;4.20;;;;;;;3.37;86.69;99112.69;5049741;28;20607;-76
2020/12/25 10:12:44;;;;;;;7.03;3.75;;;;;;;3.31;86.35;99110.63;5038272;28;20405;-75
2020/12/25 10:15:09;;;;;;;5.90;3.65;;;;;;;3.39;86.84;99112.53;5054828;28;20059;-73
2020/12/25 10:17:34;;;;;;;6.93;4.13;;;;;;;3.25;86.30;99111.22;5060563;28;20060;-75
2020/12/25 10:20:00;;;;;;;7.47;3.90;;;;;;;3.37;87.06;99114.53;5063787;28;20036;-77
2020/12/25 10:22:25;;;;;;;6.78;3.58;;;;;;;3.33;87.10;99119.34;5046353;28;20374;-71
2020/12/25 10:24:50;;;;;;;6.80;4.30;;;;;;;3.28;85.92;99117.09;5058882;28;20036;-71
2020/12/25 10:27:15;;;;;;;7.85;4.05;;;;;;;3.40;86.36;99123.06;5059927;28;20021;-71
2020/12/25 10:29:41;;;;;;;6.88;3.92;;;;;;;3.33;86.85;99121.16;5053977;28;20037;-71
2020/12/25 10:32:06;;;;;;;7.35;4.03;;;;;;;3.34;86.97;99114.81;5067489;28;20017;-72
2020/12/25 10:34:32;;;;;;;8.02;4.35;;;;;;;3.35;86.30;99092.44;5063589;28;20029;-71
2020/12/25 10:36:59;;;;;;;8.88;4.10;;;;;;;3.39;86.26;99109.88;5052196;28;20025;-72
2020/12/25 10:39:24;;;;;;;8.98;4.25;;;;;;;3.34;86.39;99122.84;5050001;28;20044;-72
2020/12/25 10:41:50;;;;;;;6.65;3.55;;;;;;;3.24;86.74;99117.53;5057098;28;20024;-72
2020/12/25 10:44:15;;;;;;;5.78;3.67;;;;;;;3.11;86.76;99115.22;5056961;28;20029;-72
2020/12/25 10:46:40;;;;;;;6.32;3.83;;;;;;;3.08;87.03;99123.53;5032943;28;20193;-72
2020/12/25 10:49:05;;;;;;;6.10;3.50;;;;;;;2.93;87.21;99125.00;5056998;28;20036;-72
2020/12/25 10:51:31;;;;;;;6.72;3.55;;;;;;;2.75;87.16;99111.56;5050532;28;20050;-72
2020/12/25 10:53:56;;;;;;;8.50;3.90;;;;;;;2.72;87.14;99110.03;5038528;28;20146;-72
2020/12/25 10:56:23;;;;;;;11.35;4.32;;;;;;;2.76;87.75;99110.59;5052822;28;20061;-72
2020/12/25 10:58:49;;;;;;;8.40;3.80;;;;;;;2.91;86.98;99124.28;5069778;28;20036;-72
2020/12/25 11:01:24;;;;;;;6.43;3.10;;;;;;;2.97;87.04;99126.41;5031540;28;20074;-72
2020/12/25 11:03:51;;;;;;;7.07;3.25;;;;;;;2.92;87.07;99124.16;5036893;28;20035;-72
2020/12/25 11:06:17;;;;;;;6.85;3.33;;;;;;;2.87;87.19;99128.25;5053816;28;20140;-72
2020/12/25 11:08:45;;;;;;;7.20;3.42;;;;;;;2.91;87.55;99132.31;5054801;28;20039;-72
2020/12/25 11:11:11;;;;;;;5.65;3.67;;;;;;;2.89;87.43;99123.63;5054615;28;20028;-72
2020/12/25 11:13:36;;;;;;;6.35;3.53;;;;;;;3.00;86.85;99128.78;5053608;28;20067;-72
2020/12/25 11:16:01;;;;;;;5.88;3.45;;;;;;;3.04;86.75;99141.72;5054963;28;20075;-72
2020/12/25 11:18:26;;;;;;;6.80;3.28;;;;;;;3.08;86.00;99142.25;5035845;28;20657;-72
2020/12/25 11:20:52;;;;;;;6.63;3.40;;;;;;;2.98;86.52;99123.56;5057057;28;20452;-72
2020/12/25 11:23:17;;;;;;;7.18;4.15;;;;;;;3.14;86.09;99146.16;5060286;28;20099;-72
2020/12/25 11:25:42;;;;;;;7.30;3.50;;;;;;;3.08;85.88;99136.91;5053354;28;20028;-72
2020/12/25 11:28:07;;;;;;;7.85;3.58;;;;;;;3.00;84.69;99134.13;5051410;28;20111;-72
2020/12/25 11:30:33;;;;;;;7.60;3.40;;;;;;;3.10;85.53;99148.28;5034989;28;20132;-72
2020/12/25 11:32:58;;;;;;;7.18;3.40;;;;;;;2.99;84.38;99135.97;5035223;28;20722;-72
2020/12/25 11:35:23;;;;;;;5.20;3.38;;;;;;;2.91;83.10;99130.50;5051488;28;20436;-72
2020/12/25 11:37:48;;;;;;;5.13;2.53;;;;;;;2.83;82.84;99139.25;5040547;28;20028;-72